Time;durP1;ratioP1;P1;durP2;ratioP2;P2;SDS_P1;SDS_P2;PMS_P1;PMS_P2;Temp;Humidity;BMP_temperature;BMP_pressure;BME280_temperature;BME280_humidity;BME280_pressure;Samples;Min_cycle;Max_cycle;Signal;HPM_P1;HPM_P2
2023/07/13 04:01:29;;;;;;;5.28;1.70;;;19.10;99.90;;;;;;5485842;23;20133;-67
2023/07/13 04:03:54;;;;;;;3.13;1.80;;;19.20;99.90;;;;;;4977541;28;20062;-69
2023/07/13 04:06:23;;;;;;;4.70;1.70;;;19.10;99.90;;;;;;4993155;28;20026;-69
2023/07/13 04:08:54;;;;;;;4.32;1.63;;;19.10;99.90;;;;;;4977068;28;20019;-68
2023/07/13 04:11:22;;;;;;;4.40;1.73;;;19.30;99.90;;;;;;4994907;28;20093;-68
2023/07/13 04:13:48;;;;;;;4.72;2.00;;;19.40;99.90;;;;;;4999048;28;20023;-69
2023/07/13 04:16:15;;;;;;;3.83;1.58;;;19.40;99.90;;;;;;4996476;28;20447;-70
2023/07/13 04:18:41;;;;;;;3.17;1.42;;;19.40;99.90;;;;;;4979544;28;20026;-70
2023/07/13 04:21:08;;;;;;;3.33;1.60;;;19.20;99.90;;;;;;4977750;28;20033;-70
2023/07/13 04:23:34;;;;;;;5.63;1.95;;;19.10;99.90;;;;;;4996090;28;20041;-70
2023/07/13 04:25:59;;;;;;;5.15;1.80;;;19.10;99.90;;;;;;4977503;28;20399;-70
2023/07/13 04:28:25;;;;;;;6.05;1.58;;;19.10;99.90;;;;;;4968437;28;20444;-70
2023/07/13 04:30:51;;;;;;;5.43;1.50;;;19.10;99.90;;;;;;4975443;28;20038;-70
2023/07/13 04:33:17;;;;;;;5.80;1.60;;;19.10;99.90;;;;;;4958363;28;20436;-70
2023/07/13 04:35:46;;;;;;;5.72;1.70;;;19.10;99.90;;;;;;4976027;28;20073;-70
2023/07/13 04:38:12;;;;;;;5.03;1.65;;;19.30;99.90;;;;;;4975173;28;20026;-70
2023/07/13 04:40:38;;;;;;;5.60;2.28;;;19.30;99.90;;;;;;4957992;28;20026;-70
2023/07/13 04:43:03;;;;;;;3.67;1.60;;;19.50;99.90;;;;;;4975053;28;20143;-69
2023/07/13 04:45:30;;;;;;;4.57;1.55;;;19.50;99.90;;;;;;4957869;28;20026;-70
2023/07/13 04:47:56;;;;;;;6.88;1.98;;;19.60;99.90;;;;;;4957812;28;20051;-70
2023/07/13 04:50:22;;;;;;;6.22;1.58;;;19.60;99.90;;;;;;4974641;28;20537;-70
2023/07/13 04:52:50;;;;;;;3.05;1.70;;;19.60;99.90;;;;;;4957418;28;20023;-70
2023/07/13 04:55:16;;;;;;;4.90;1.70;;;19.60;99.90;;;;;;4959091;28;20550;-69
2023/07/13 04:57:42;;;;;;;;;;;19.60;99.90;;;;;;4987453;28;20038;-69
2023/07/13 05:00:08;;;;;;;6.03;2.13;;;19.50;99.90;;;;;;4986397;28;20037;-66
2023/07/13 05:02:35;;;;;;;3.58;1.65;;;19.40;99.90;;;;;;4966440;28;20507;-67
2023/07/13 05:05:00;;;;;;;7.57;2.53;;;19.40;99.90;;;;;;4957478;28;20085;-68
2023/07/13 05:07:26;;;;;;;5.95;1.70;;;19.30;99.90;;;;;;4974903;28;20101;-68
2023/07/13 05:09:52;;;;;;;5.07;1.70;;;19.30;99.90;;;;;;4992284;28;20026;-67
2023/07/13 05:12:18;;;;;;;39.08;3.75;;;19.30;99.90;;;;;;4994262;28;20026;-65
2023/07/13 05:14:44;;;;;;;25.48;3.17;;;19.40;99.90;;;;;;4994399;28;20109;-68
2023/07/13 05:17:10;;;;;;;5.97;1.70;;;19.70;99.90;;;;;;4976468;28;20065;-69
2023/07/13 05:19:35;;;;;;;4.50;1.60;;;19.90;99.90;;;;;;4994039;28;20077;-67
2023/07/13 05:22:02;;;;;;;5.05;1.85;;;19.90;99.90;;;;;;4995190;28;20049;-67
2023/07/13 05:24:27;;;;;;;6.30;2.38;;;19.90;99.90;;;;;;4994617;28;20023;-67
2023/07/13 05:26:53;;;;;;;4.72;1.75;;;19.80;99.90;;;;;;4993264;28;20037;-68
2023/07/13 05:29:19;;;;;;;6.57;1.80;;;19.80;99.90;;;;;;4993972;28;20031;-68
2023/07/13 05:31:45;;;;;;;4.53;1.45;;;19.90;99.90;;;;;;4996127;28;20483;-68
2023/07/13 05:34:10;;;;;;;8.32;2.22;;;20.10;99.90;;;;;;4995596;28;20030;-68
2023/07/13 05:36:36;;;;;;;8.20;1.85;;;20.10;99.90;;;;;;4996456;28;20507;-68
2023/07/13 05:39:03;;;;;;;4.45;1.63;;;20.20;99.90;;;;;;4980442;28;20557;-69
2023/07/13 05:41:29;;;;;;;5.80;2.15;;;20.20;99.90;;;;;;4996781;28;20042;-68
2023/07/13 05:43:54;;;;;;;4.97;2.17;;;20.00;99.90;;;;;;4993735;28;20431;-68
2023/07/13 05:46:20;;;;;;;8.73;1.80;;;19.90;99.90;;;;;;4979952;28;20057;-70
2023/07/13 05:48:45;;;;;;;7.35;1.80;;;19.70;99.90;;;;;;5000577;28;20447;-69
2023/07/13 05:51:11;;;;;;;4.88;1.45;;;19.60;99.90;;;;;;5002415;28;20034;-69
2023/07/13 05:53:36;;;;;;;3.42;1.48;;;19.60;99.90;;;;;;5000171;28;20482;-69
2023/07/13 05:56:02;;;;;;;8.02;2.10;;;19.50;99.90;;;;;;4992518;28;20061;-68
2023/07/13 05:58:27;;;;;;;4.40;1.88;;;19.70;99.90;;;;;;4987966;28;20061;-68
2023/07/13 06:01:06;;;;;;;4.47;1.80;;;19.70;99.90;;;;;;4979925;28;20070;-68
2023/07/13 06:03:31;;;;;;;7.70;2.42;;;19.70;99.90;;;;;;4998311;28;20018;-68
2023/07/13 06:06:00;;;;;;;7.95;1.77;;;19.70;99.90;;;;;;4983039;28;20034;-67
2023/07/13 06:08:26;;;;;;;5.38;1.92;;;19.70;99.90;;;;;;4970924;28;20038;-68
2023/07/13 06:10:52;;;;;;;4.47;1.58;;;19.70;99.90;;;;;;4999907;28;20092;-68
2023/07/13 06:13:19;;;;;;;4.68;1.95;;;19.80;99.90;;;;;;5002753;28;20026;-68
2023/07/13 06:15:51;;;;;;;5.72;1.90;;;19.80;99.90;;;;;;4984836;28;20037;-68
2023/07/13 06:18:16;;;;;;;6.10;2.00;;;20.00;99.90;;;;;;4995568;28;20434;-69
2023/07/13 06:20:42;;;;;;;7.18;2.20;;;20.10;99.90;;;;;;4995157;28;20031;-69
2023/07/13 06:23:07;;;;;;;4.60;1.90;;;20.30;99.90;;;;;;4995106;28;20502;-69
2023/07/13 06:25:33;;;;;;;8.18;1.90;;;20.40;99.90;;;;;;4995180;28;20041;-70
2023/07/13 06:27:59;;;;;;;4.95;1.40;;;20.50;99.90;;;;;;4991677;28;20042;-69
2023/07/13 06:30:25;;;;;;;4.95;1.60;;;20.50;99.90;;;;;;4978068;28;20033;-68
2023/07/13 06:32:50;;;;;;;7.82;2.15;;;20.50;99.90;;;;;;4962784;28;20402;-70
2023/07/13 06:35:16;;;;;;;7.35;2.13;;;20.50;99.90;;;;;;4979100;28;20023;-69
2023/07/13 06:37:41;;;;;;;8.25;3.00;;;20.60;99.90;;;;;;4996868;28;20041;-72
2023/07/13 06:40:08;;;;;;;7.50;2.42;;;20.50;99.90;;;;;;4979920;28;20029;-71
2023/07/13 06:42:34;;;;;;;6.35;1.60;;;20.50;99.90;;;;;;4996298;28;20402;-72
2023/07/13 06:45:00;;;;;;;4.68;1.77;;;20.50;99.90;;;;;;4996426;28;20506;-65
2023/07/13 06:47:26;;;;;;;5.05;2.03;;;20.50;99.90;;;;;;4994947;28;20059;-67
2023/07/13 06:49:51;;;;;;;;;;;20.60;99.90;;;;;;4995318;28;20030;-66
2023/07/13 06:52:17;;;;;;;;;;;20.70;99.90;;;;;;4996237;28;19912;-67
2023/07/13 06:54:42;;;;;;;;;;;20.80;99.90;;;;;;4978991;28;19912;-66
2023/07/13 06:57:08;;;;;;;;;;;20.90;99.90;;;;;;4996572;28;19944;-67
2023/07/13 06:59:33;;;;;;;;;;;21.10;99.90;;;;;;4995815;28;19913;-68
2023/07/13 07:01:59;;;;;;;;;;;21.00;99.90;;;;;;4995826;28;19921;-67
2023/07/13 07:04:24;;;;;;;;;;;21.00;99.90;;;;;;4997028;28;20362;-67
2023/07/13 07:06:50;;;;;;;;;;;21.10;99.90;;;;;;4995910;28;19916;-65
2023/07/13 07:09:16;;;;;;;;;;;21.10;99.90;;;;;;4996286;28;19931;-66
2023/07/13 07:11:42;;;;;;;;;;;21.20;99.90;;;;;;4978443;28;20363;-65
2023/07/13 07:14:07;;;;;;;;;;;21.30;99.90;;;;;;4995884;28;19913;-65
2023/07/13 07:16:33;;;;;;;;;;;21.40;99.80;;;;;;4995958;28;19973;-67
2023/07/13 07:18:58;;;;;;;;;;;21.40;99.50;;;;;;4995837;28;20414;-65
2023/07/13 07:21:24;;;;;;;;;;;21.50;99.40;;;;;;4995729;28;19906;-66
2023/07/13 07:23:49;;;;;;;;;;;21.60;99.10;;;;;;4995543;28;19916;-65
2023/07/13 07:26:15;;;;;;;;;;;21.50;98.60;;;;;;4995823;28;19905;-66
2023/07/13 07:28:40;;;;;;;;;;;21.60;98.10;;;;;;4995461;28;20255;-65
2023/07/13 07:31:06;;;;;;;;;;;21.70;97.90;;;;;;4995767;28;19913;-66
2023/07/13 07:33:32;;;;;;;;;;;21.70;97.30;;;;;;4978138;28;20083;-65
2023/07/13 07:35:57;;;;;;;;;;;21.80;97.80;;;;;;4978070;28;19953;-67
2023/07/13 07:38:23;;;;;;;;;;;21.90;98.00;;;;;;4995292;28;19909;-67
2023/07/13 07:40:48;;;;;;;;;;;22.00;97.90;;;;;;4977572;28;19906;-67
2023/07/13 07:43:14;;;;;;;;;;;22.10;97.60;;;;;;4995057;28;19905;-66
2023/07/13 07:45:39;;;;;;;;;;;22.30;96.60;;;;;;4977417;28;19906;-66
2023/07/13 07:48:06;;;;;;;;;;;22.20;96.70;;;;;;4977604;28;19906;-66
2023/07/13 07:50:31;;;;;;;;;;;22.40;96.70;;;;;;4995093;28;19914;-66
2023/07/13 07:52:57;;;;;;;;;;;22.50;96.10;;;;;;4994986;28;20341;-65
2023/07/13 07:55:23;;;;;;;;;;;22.90;95.80;;;;;;4994944;28;19905;-65
2023/07/13 07:57:49;;;;;;;;;;;23.10;94.90;;;;;;4995163;28;19951;-66
2023/07/13 08:00:15;;;;;;;;;;;23.10;94.50;;;;;;4994620;28;19906;-66
2023/07/13 08:02:41;;;;;;;;;;;23.20;93.50;;;;;;4994881;28;20040;-66
2023/07/13 08:05:07;;;;;;;;;;;23.30;93.70;;;;;;4977519;28;19925;-65
2023/07/13 08:07:32;;;;;;;;;;;23.40;93.60;;;;;;4977313;28;19905;-67
2023/07/13 08:09:58;;;;;;;;;;;23.60;92.70;;;;;;4994573;28;19917;-66
2023/07/13 08:12:23;;;;;;;;;;;23.80;92.80;;;;;;4993822;28;19909;-66
2023/07/13 08:14:57;;;;;;;;;;;23.80;92.70;;;;;;4994260;28;19964;-66
2023/07/13 08:17:23;;;;;;;;;;;24.60;90.90;;;;;;4994972;28;20000;-66
2023/07/13 08:19:49;;;;;;;;;;;26.60;88.70;;;;;;4994607;28;19913;-67
2023/07/13 08:22:14;;;;;;;;;;;29.50;80.30;;;;;;4994718;28;19905;-67
2023/07/13 08:24:42;;;;;;;;;;;31.90;72.20;;;;;;4977033;28;19905;-66
2023/07/13 08:27:07;;;;;;;;;;;33.70;67.30;;;;;;4995085;28;19905;-66
2023/07/13 08:29:33;;;;;;;;;;;35.10;61.30;;;;;;4994217;28;19929;-65
2023/07/13 08:31:58;;;;;;;;;;;36.30;59.60;;;;;;4995099;28;19913;-66
2023/07/13 08:34:24;;;;;;;;;;;37.80;57.20;;;;;;4976747;28;19909;-65
2023/07/13 08:36:49;;;;;;;;;;;38.10;55.50;;;;;;4994180;28;19910;-66
2023/07/13 08:39:14;;;;;;;;;;;37.00;55.50;;;;;;4994300;28;19906;-66
2023/07/13 08:41:40;;;;;;;;;;;36.80;55.80;;;;;;4994796;28;19912;-66
2023/07/13 08:44:10;;;;;;;;;;;37.50;54.80;;;;;;4976537;28;19912;-66
2023/07/13 08:46:38;;;;;;;;;;;37.90;54.30;;;;;;4995213;28;19917;-66
2023/07/13 08:49:18;;;;;;;;;;;38.20;53.90;;;;;;4994824;28;19910;-65
2023/07/13 08:52:05;;;;;;;;;;;39.00;52.70;;;;;;4994039;28;19913;-66
2023/07/13 08:54:39;;;;;;;;;;;39.80;51.10;;;;;;4994341;28;19960;-66
2023/07/13 08:57:15;;;;;;;;;;;40.30;50.00;;;;;;4994150;28;19906;-66
2023/07/13 08:59:41;;;;;;;;;;;40.80;50.00;;;;;;4993692;28;19985;-66
2023/07/13 09:02:09;;;;;;;;;;;40.40;48.90;;;;;;4993794;28;20271;-66
2023/07/13 09:04:53;;;;;;;;;;;40.50;49.00;;;;;;4993727;28;19924;-64
2023/07/13 09:07:25;;;;;;;;;;;41.20;49.10;;;;;;4993898;28;19909;-65
2023/07/13 09:09:56;;;;;;;;;;;41.70;48.20;;;;;;4994599;28;20072;-65
2023/07/13 09:12:39;;;;;;;;;;;40.40;47.40;;;;;;4993824;28;20004;-65
2023/07/13 09:15:05;;;;;;;;;;;40.10;48.30;;;;;;4976141;28;20335;-65
2023/07/13 09:17:36;;;;;;;;;;;39.20;47.70;;;;;;4993931;28;20001;-65
2023/07/13 09:20:08;;;;;;;;;;;39.60;47.80;;;;;;4994117;28;20282;-65
2023/07/13 09:22:36;;;;;;;;;;;39.80;47.50;;;;;;4993694;28;19906;-66
2023/07/13 09:25:11;;;;;;;;;;;39.80;47.70;;;;;;4996213;28;19913;-65
2023/07/13 09:27:39;;;;;;;;;;;39.10;47.90;;;;;;4997516;28;19941;-66
2023/07/13 09:30:17;;;;;;;;;;;38.60;48.30;;;;;;4997313;28;20248;-65
2023/07/13 09:32:44;;;;;;;;;;;39.30;48.20;;;;;;4997699;28;19906;-65
2023/07/13 09:35:11;;;;;;;;;;;40.70;47.30;;;;;;4997936;28;19906;-65
2023/07/13 09:37:37;;;;;;;;;;;40.60;46.80;;;;;;4997801;28;19913;-66
2023/07/13 09:40:04;;;;;;;;;;;40.10;47.10;;;;;;4997496;28;19909;-65
2023/07/13 09:42:31;;;;;;;;;;;40.00;47.30;;;;;;4997260;28;20281;-66
2023/07/13 09:44:58;;;;;;;;;;;40.10;47.10;;;;;;4979653;28;19906;-65
2023/07/13 09:47:26;;;;;;;;;;;39.40;47.30;;;;;;4997365;28;19949;-65
2023/07/13 09:49:59;;;;;;;;;;;39.00;47.80;;;;;;4997296;28;19964;-65
2023/07/13 09:52:26;;;;;;;;;;;39.10;47.70;;;;;;4997218;28;20299;-66
2023/07/13 09:54:53;;;;;;;;;;;39.60;47.30;;;;;;4979694;28;19994;-65
2023/07/13 09:57:22;;;;;;;;;;;39.60;47.20;;;;;;4979411;28;20370;-66
2023/07/13 09:59:49;;;;;;;;;;;39.50;46.90;;;;;;4996865;28;20363;-66
2023/07/13 10:02:34;;;;;;;;;;;40.30;46.80;;;;;;4996942;28;20000;-64
2023/07/13 10:05:02;;;;;;;;;;;40.90;46.50;;;;;;4997103;28;20290;-64
2023/07/13 10:07:29;;;;;;;;;;;40.40;46.30;;;;;;4979404;28;19906;-65
2023/07/13 10:09:55;;;;;;;;;;;40.10;46.50;;;;;;4996735;28;19913;-65
2023/07/13 10:12:23;;;;;;;;;;;40.10;46.50;;;;;;4979271;28;19929;-65
2023/07/13 10:14:50;;;;;;;;;;;41.30;46.50;;;;;;4979520;28;20012;-66
2023/07/13 10:17:18;;;;;;;;;;;40.30;46.00;;;;;;4997062;28;20302;-67
2023/07/13 10:19:45;;;;;;;;;;;39.30;46.90;;;;;;4997107;28;19910;-67
2023/07/13 10:22:25;;;;;;;;;;;39.10;47.60;;;;;;4996754;28;19928;-67
2023/07/13 10:24:51;;;;;;;;;;;40.00;47.40;;;;;;4996624;28;20037;-67
2023/07/13 10:27:17;;;;;;;;;;;40.60;46.50;;;;;;4996628;28;19913;-67
2023/07/13 10:30:02;;;;;;;;;;;39.90;47.10;;;;;;4996396;28;20282;-67
2023/07/13 10:32:28;;;;;;;;;;;39.70;47.30;;;;;;4963257;28;19916;-66
2023/07/13 10:34:55;;;;;;;;;;;38.50;48.20;;;;;;4997063;28;20000;-67
2023/07/13 10:37:29;;;;;;;;;;;38.40;48.20;;;;;;4996145;28;19912;-68
2023/07/13 10:39:56;;;;;;;;;;;38.80;49.00;;;;;;4979350;28;19910;-68
2023/07/13 10:42:28;;;;;;;;;;;38.90;48.10;;;;;;4996968;28;19910;-67
2023/07/13 10:44:53;;;;;;;;;;;39.20;47.30;;;;;;4997179;28;19906;-67
2023/07/13 10:47:19;;;;;;;;;;;39.20;47.10;;;;;;4998329;28;19906;-67
2023/07/13 10:49:54;;;;;;;;;;;38.80;47.90;;;;;;4998143;28;19969;-67
2023/07/13 10:52:40;;;;;;;;;;;39.10;48.00;;;;;;4980152;28;19944;-67
2023/07/13 10:55:26;;;;;;;;;;;39.10;47.90;;;;;;4998382;28;20256;-67
2023/07/13 10:57:51;;;;;;;;;;;38.60;48.20;;;;;;4997458;28;20247;-67
2023/07/13 11:00:18;;;;;;;;;;;38.40;48.30;;;;;;4997044;28;19905;-67
2023/07/13 11:02:56;;;;;;;;;;;38.60;48.50;;;;;;4998516;28;19910;-67
2023/07/13 11:05:26;;;;;;;;;;;39.10;48.70;;;;;;4998822;28;19937;-68
2023/07/13 11:07:55;;;;;;;;;;;39.20;47.60;;;;;;4997586;28;19905;-68
2023/07/13 11:10:39;;;;;;;;;;;39.40;48.10;;;;;;4996855;28;19910;-67
2023/07/13 11:13:24;;;;;;;;;;;39.90;47.80;;;;;;4996267;28;20016;-67
2023/07/13 11:15:50;;;;;;;;;;;39.10;48.00;;;;;;4995732;28;19964;-67
2023/07/13 11:18:24;;;;;;;;;;;37.90;47.50;;;;;;4996038;28;19905;-67
2023/07/13 11:20:50;;;;;;;;;;;36.60;48.60;;;;;;4995712;28;19909;-67
2023/07/13 11:23:16;;;;;;;;;;;35.30;50.20;;;;;;4995638;28;20418;-67
2023/07/13 11:25:42;;;;;;;;;;;33.30;51.90;;;;;;4978229;28;19952;-68
2023/07/13 11:28:11;;;;;;;;;;;31.80;53.40;;;;;;4995928;28;19960;-67
2023/07/13 11:30:39;;;;;;;;;;;31.00;54.40;;;;;;4995145;28;19909;-67
2023/07/13 11:33:16;;;;;;;;;;;30.40;55.80;;;;;;4995538;28;19913;-67
2023/07/13 11:35:49;;;;;;;;;;;30.20;55.90;;;;;;4978418;28;19913;-67
2023/07/13 11:38:30;;;;;;;;;;;29.80;55.00;;;;;;4995174;28;19913;-68
2023/07/13 11:40:56;;;;;;;;;;;29.50;55.30;;;;;;4995166;28;19913;-67
2023/07/13 11:43:25;;;;;;;;;;;29.30;56.10;;;;;;4995099;28;19910;-67
2023/07/13 11:45:51;;;;;;;;;;;29.20;56.40;;;;;;4994974;28;19910;-67
2023/07/13 11:48:21;;;;;;;;;;;29.10;56.10;;;;;;4994684;28;19906;-67
2023/07/13 11:50:51;;;;;;;;;;;29.20;56.30;;;;;;4994794;28;19957;-67
2023/07/13 11:53:17;;;;;;;;;;;29.40;56.50;;;;;;4977470;28;19942;-67
2023/07/13 11:55:42;;;;;;;;;;;29.20;56.70;;;;;;4995441;28;19956;-67
2023/07/13 11:58:09;;;;;;;;;;;28.90;57.30;;;;;;4994663;28;19910;-66
2023/07/13 12:00:36;;;;;;;;;;;28.70;57.30;;;;;;4976912;28;19936;-66
2023/07/13 12:03:04;;;;;;;;;;;28.50;58.00;;;;;;4977335;28;20388;-67
2023/07/13 12:05:32;;;;;;;;;;;28.40;58.20;;;;;;4994761;28;19905;-66
2023/07/13 12:07:57;;;;;;;;;;;28.40;57.90;;;;;;4994908;28;20030;-68
2023/07/13 12:10:24;;;;;;;;;;;28.20;57.30;;;;;;4994675;28;19910;-68
2023/07/13 12:12:53;;;;;;;;;;;28.50;57.00;;;;;;4994884;28;19936;-66
2023/07/13 12:15:19;;;;;;;;;;;28.60;56.50;;;;;;4994404;28;19906;-66
2023/07/13 12:17:45;;;;;;;;;;;28.80;56.80;;;;;;4994621;28;19909;-67
2023/07/13 12:20:34;;;;;;;;;;;28.60;56.50;;;;;;4994435;28;20355;-67
2023/07/13 12:23:00;;;;;;;;;;;28.60;56.50;;;;;;4981318;28;19952;-67
2023/07/13 12:25:25;;;;;;;;;;;28.60;56.90;;;;;;4994530;28;19906;-67
2023/07/13 12:27:51;;;;;;;;;;;28.50;56.10;;;;;;4994446;28;19905;-66
2023/07/13 12:30:30;;;;;;;;;;;28.30;56.60;;;;;;4993974;28;19964;-67
2023/07/13 12:32:57;;;;;;;;;;;28.20;56.70;;;;;;4994409;28;19928;-67
2023/07/13 12:35:23;;;;;;;;;;;28.20;55.20;;;;;;4994694;28;19906;-67
2023/07/13 12:37:48;;;;;;;;;;;28.20;56.30;;;;;;4994320;28;19912;-67
2023/07/13 12:40:24;;;;;;;;;;;28.30;56.00;;;;;;4994552;28;20429;-67
2023/07/13 12:42:51;;;;;;;;;;;28.30;55.60;;;;;;4994458;28;20285;-68
2023/07/13 12:45:21;;;;;;;;;;;28.30;55.00;;;;;;4994144;28;19956;-67
2023/07/13 12:47:48;;;;;;;;;;;28.30;55.30;;;;;;4994312;28;19909;-67
2023/07/13 12:50:15;;;;;;;;;;;28.70;55.40;;;;;;4994640;28;19915;-67
2023/07/13 12:52:43;;;;;;;;;;;28.80;55.30;;;;;;4994281;28;19932;-67
2023/07/13 12:55:14;;;;;;;;;;;28.90;54.60;;;;;;4994269;28;19955;-67
2023/07/13 12:57:52;;;;;;;;;;;28.80;55.00;;;;;;4994500;28;19906;-67
2023/07/13 13:00:26;;;;;;;;;;;28.80;55.10;;;;;;4999929;28;19910;-67
2023/07/13 13:02:52;;;;;;;;;;;28.60;55.30;;;;;;5001139;28;19920;-67
2023/07/13 13:05:18;;;;;;;;;;;28.60;55.00;;;;;;5000426;28;19976;-67
2023/07/13 13:07:46;;;;;;;;;;;28.70;54.80;;;;;;4989437;28;19941;-67
2023/07/13 13:10:12;;;;;;;;;;;28.60;55.20;;;;;;4981054;28;19921;-68
2023/07/13 13:12:37;;;;;;;;;;;28.80;55.10;;;;;;4981160;28;19992;-67
2023/07/13 13:15:06;;;;;;;;;;;28.70;54.90;;;;;;4980431;28;20072;-67
2023/07/13 13:17:32;;;;;;;;;;;28.60;54.70;;;;;;4980549;28;19906;-67
2023/07/13 13:19:57;;;;;;;;;;;28.50;55.40;;;;;;4980651;28;20280;-67
2023/07/13 13:22:23;;;;;;;;;;;28.60;55.30;;;;;;4980574;28;19910;-67
2023/07/13 13:24:48;;;;;;;;;;;28.70;55.10;;;;;;4980550;28;19906;-67
2023/07/13 13:27:21;;;;;;;;;;;28.70;55.80;;;;;;4981379;28;19906;-67
2023/07/13 13:29:48;;;;;;;;;;;28.70;54.40;;;;;;4984479;28;20366;-66
2023/07/13 13:32:14;;;;;;;;;;;28.50;55.10;;;;;;4999755;28;19957;-69
2023/07/13 13:34:41;;;;;;;;;;;28.40;55.20;;;;;;5000511;28;20373;-69
2023/07/13 13:37:22;;;;;;;;;;;28.60;55.00;;;;;;5000092;28;19928;-69
2023/07/13 13:39:48;;;;;;;;;;;28.50;54.70;;;;;;4998317;28;19906;-70
2023/07/13 13:42:14;;;;;;;;;;;28.70;54.40;;;;;;4981103;28;19910;-71
2023/07/13 13:44:41;;;;;;;;;;;28.80;54.60;;;;;;4982442;28;19913;-70
2023/07/13 13:47:17;;;;;;;;;;;28.90;54.10;;;;;;4982630;28;20278;-70
2023/07/13 13:49:42;;;;;;;;;;;29.00;54.20;;;;;;4999815;28;19906;-68
2023/07/13 13:52:09;;;;;;;;;;;28.90;54.40;;;;;;4999904;28;20278;-71
2023/07/13 13:54:34;;;;;;;;;;;28.70;54.40;;;;;;5000037;28;19916;-70
2023/07/13 13:57:00;;;;;;;;;;;28.70;54.80;;;;;;4982722;28;19905;-69
2023/07/13 13:59:26;;;;;;;;;;;28.60;54.40;;;;;;5000127;28;20433;-70
2023/07/13 14:01:51;;;;;;;;;;;28.60;54.50;;;;;;5000084;28;20318;-70
2023/07/13 14:04:18;;;;;;;;;;;28.80;54.30;;;;;;4999978;28;19905;-69
2023/07/13 14:06:44;;;;;;;;;;;28.60;54.60;;;;;;5000043;28;19964;-70
2023/07/13 14:09:11;;;;;;;;;;;28.60;54.60;;;;;;4982659;28;19912;-69
2023/07/13 14:11:37;;;;;;;;;;;28.70;55.10;;;;;;4979627;28;19909;-70
2023/07/13 14:14:04;;;;;;;;;;;28.70;54.80;;;;;;4997230;28;19913;-70
2023/07/13 14:16:31;;;;;;;;;;;28.70;54.10;;;;;;4996713;28;19913;-70
2023/07/13 14:18:59;;;;;;;;;;;28.70;54.20;;;;;;4979132;28;20004;-71
2023/07/13 14:21:25;;;;;;;;;;;28.70;54.10;;;;;;4996772;28;19906;-70
2023/07/13 14:23:51;;;;;;;;;;;28.80;54.50;;;;;;4996852;28;19906;-70
2023/07/13 14:26:17;;;;;;;;;;;28.70;54.80;;;;;;4996701;28;19994;-70
2023/07/13 14:28:45;;;;;;;;;;;28.70;54.70;;;;;;4996591;28;19910;-70
2023/07/13 14:31:12;;;;;;;;;;;28.60;55.70;;;;;;4996394;28;19917;-70
2023/07/13 14:33:37;;;;;;;;;;;28.50;55.00;;;;;;4979138;28;19905;-70
2023/07/13 14:36:09;;;;;;;;;;;28.40;55.40;;;;;;4996329;28;19972;-70
2023/07/13 14:38:34;;;;;;;;;;;28.40;55.90;;;;;;4996828;28;19909;-70
2023/07/13 14:40:59;;;;;;;;;;;28.40;55.90;;;;;;4996187;28;20287;-70
2023/07/13 14:43:28;;;;;;;;;;;28.10;56.10;;;;;;4996382;28;19905;-71
2023/07/13 14:45:55;;;;;;;;;;;28.10;56.70;;;;;;4996070;28;19964;-70
2023/07/13 14:48:22;;;;;;;;;;;28.20;56.90;;;;;;4996360;28;20382;-72
2023/07/13 14:50:50;;;;;;;;;;;28.20;56.20;;;;;;4993714;28;19932;-72
2023/07/13 14:53:15;;;;;;;;;;;28.20;56.60;;;;;;4977957;28;19909;-70
2023/07/13 14:55:42;;;;;;;;;;;28.30;56.80;;;;;;4978486;28;19921;-70
2023/07/13 14:58:07;;;;;;;;;;;28.40;57.10;;;;;;4996061;28;20000;-70
2023/07/13 15:00:33;;;;;;;;;;;28.30;57.10;;;;;;4995180;28;20020;-70
2023/07/13 15:03:00;;;;;;;;;;;28.30;57.00;;;;;;4996695;28;19913;-71
2023/07/13 15:05:29;;;;;;;;;;;28.20;56.70;;;;;;4993313;28;19912;-71
2023/07/13 15:07:56;;;;;;;;;;;28.10;57.00;;;;;;4976496;28;20004;-71
2023/07/13 15:10:26;;;;;;;;;;;28.20;56.90;;;;;;4958746;28;19984;-73
2023/07/13 15:12:52;;;;;;;;;;;28.30;56.80;;;;;;4977113;28;19917;-69
2023/07/13 15:15:18;;;;;;;;;;;28.30;56.30;;;;;;4993102;28;19972;-69
2023/07/13 15:17:45;;;;;;;;;;;28.20;56.60;;;;;;4977914;28;20295;-70
2023/07/13 15:20:11;;;;;;;;;;;28.10;57.20;;;;;;4993203;28;20398;-70
2023/07/13 15:22:36;;;;;;;;;;;28.10;57.30;;;;;;4995146;28;19912;-72
2023/07/13 15:25:03;;;;;;;;;;;28.10;57.40;;;;;;4978287;28;19953;-71
2023/07/13 15:27:29;;;;;;;;;;;28.10;57.40;;;;;;4978157;28;19928;-72
2023/07/13 15:29:54;;;;;;;;;;;28.00;57.60;;;;;;4977670;28;19909;-70
2023/07/13 15:32:20;;;;;;;;;;;27.90;57.20;;;;;;4977807;28;19933;-72
2023/07/13 15:34:45;;;;;;;;;;;27.90;57.00;;;;;;4995509;28;20371;-72
2023/07/13 15:37:15;;;;;;;;;;;27.90;57.50;;;;;;4995991;28;19906;-72
2023/07/13 15:39:41;;;;;;;;;;;27.70;57.50;;;;;;4995568;28;19905;-72
2023/07/13 15:42:14;;;;;;;;;;;27.60;57.50;;;;;;4995415;28;19913;-70
2023/07/13 15:44:39;;;;;;;;;;;27.60;57.80;;;;;;4993107;28;20293;-69
2023/07/13 15:47:06;;;;;;;;;;;27.70;57.90;;;;;;4984948;28;20005;-68
2023/07/13 15:49:32;;;;;;;;;;;27.70;57.60;;;;;;4990667;28;20001;-70
2023/07/13 15:51:57;;;;;;;;;;;27.50;57.70;;;;;;4975363;28;19952;-75
2023/07/13 15:54:24;;;;;;;;;;;27.60;58.00;;;;;;4960548;28;19960;-74
2023/07/13 15:56:53;;;;;;;;;;;27.60;58.10;;;;;;4988073;28;19922;-74
2023/07/13 15:59:19;;;;;;;;;;;27.60;58.00;;;;;;4978164;28;19949;-74
2023/07/13 16:01:46;;;;;;;;;;;27.60;57.60;;;;;;5001771;28;19913;-74
2023/07/13 16:04:11;;;;;;;;;;;27.60;57.80;;;;;;5013129;28;20260;-74
2023/07/13 16:06:39;;;;;;;;;;;27.50;57.60;;;;;;5002556;28;19997;-74
2023/07/13 16:09:06;;;;;;;;;;;27.50;58.20;;;;;;4975795;28;19917;-75
2023/07/13 16:11:35;;;;;;;;;;;27.50;58.40;;;;;;4958487;28;19910;-75
2023/07/13 16:14:01;;;;;;;;;;;27.60;58.10;;;;;;4975900;28;20011;-76
2023/07/13 16:16:28;;;;;;;;;;;27.60;58.00;;;;;;4957839;28;19906;-74
2023/07/13 16:18:55;;;;;;;;;;;27.50;57.60;;;;;;4958818;28;19902;-73
2023/07/13 16:21:21;;;;;;;;;;;27.50;57.30;;;;;;4958496;28;19906;-74
2023/07/13 16:23:47;;;;;;;;;;;27.50;57.20;;;;;;4992638;28;20386;-74
2023/07/13 16:26:19;;;;;;;;;;;27.40;57.50;;;;;;4993578;28;19905;-73
2023/07/13 16:28:45;;;;;;;;;;;27.40;57.50;;;;;;4976076;28;19925;-73
2023/07/13 16:31:10;;;;;;;;;;;27.20;58.00;;;;;;4975741;28;19910;-73
2023/07/13 16:33:36;;;;;;;;;;;27.30;58.20;;;;;;4976190;28;19912;-74
2023/07/13 16:36:02;;;;;;;;;;;27.30;58.10;;;;;;4961204;28;19906;-74
2023/07/13 16:38:29;;;;;;;;;;;27.20;58.30;;;;;;4973651;28;19905;-72
2023/07/13 16:40:54;;;;;;;;;;;27.20;58.30;;;;;;4977876;28;19909;-73
2023/07/13 16:43:20;;;;;;;;;;;27.20;58.40;;;;;;4994994;28;19949;-72
2023/07/13 16:45:48;;;;;;;;;;;27.20;58.50;;;;;;4977384;28;19913;-75
2023/07/13 16:48:18;;;;;;;;;;;27.10;58.60;;;;;;4974938;28;19948;-74
2023/07/13 16:50:44;;;;;;;;;;;27.10;58.60;;;;;;4975494;28;19921;-74
2023/07/13 16:53:32;;;;;;;;;;;27.10;58.70;;;;;;4958115;28;19957;-75
2023/07/13 16:55:59;;;;;;;;;;;27.10;58.30;;;;;;4974851;28;19910;-74
2023/07/13 16:58:28;;;;;;;;;;;26.90;58.40;;;;;;4977507;28;20325;-74
2023/07/13 17:00:53;;;;;;;;;;;26.90;58.40;;;;;;4972572;28;19921;-75
2023/07/13 17:03:19;;;;;;;;;;;26.90;58.80;;;;;;4958287;28;19906;-75
2023/07/13 17:05:45;;;;;;;;;;;26.90;58.90;;;;;;4960295;28;20286;-75
2023/07/13 17:08:16;;;;;;;;;;;26.90;59.20;;;;;;4965091;28;19968;-75
2023/07/13 17:10:44;;;;;;;;;;;26.90;59.10;;;;;;4979633;28;19910;-75
2023/07/13 17:13:10;;;;;;;;;;;27.00;58.80;;;;;;4995257;28;19910;-75
2023/07/13 17:15:36;;;;;;;;;;;27.10;58.60;;;;;;4977279;28;19906;-76
2023/07/13 17:18:07;;;;;;;;;;;27.00;58.80;;;;;;4977327;28;19929;-74
2023/07/13 17:20:38;;;;;;;;;;;26.80;59.00;;;;;;4976134;28;19964;-75
2023/07/13 17:23:09;;;;;;;;;;;26.80;59.30;;;;;;4976919;28;19910;-75
2023/07/13 17:25:35;;;;;;;;;;;26.80;59.30;;;;;;4981184;28;20004;-74
2023/07/13 17:28:01;;;;;;;;;;;26.80;59.00;;;;;;4976975;28;20374;-74
2023/07/13 17:30:27;;;;;;;;;;;26.70;59.10;;;;;;4976552;28;20274;-75
2023/07/13 17:32:52;;;;;;;;;;;26.60;59.30;;;;;;4994506;28;19941;-74
2023/07/13 17:35:27;;;;;;;;;;;26.50;59.40;;;;;;4994248;28;19913;-74
2023/07/13 17:37:59;;;;;;;;;;;26.50;59.60;;;;;;4983691;28;19910;-74
2023/07/13 17:40:25;;;;;;;;;;;26.50;59.80;;;;;;4978315;28;20004;-75
2023/07/13 17:42:54;;;;;;;;;;;26.50;60.10;;;;;;4990405;28;20313;-74
2023/07/13 17:45:23;;;;;;;;;;;26.50;59.90;;;;;;4979265;28;19913;-74
2023/07/13 17:47:49;;;;;;;;;;;26.50;60.10;;;;;;4981912;28;19905;-76
2023/07/13 17:50:16;;;;;;;;;;;26.50;60.00;;;;;;4997113;28;19960;-75
2023/07/13 17:52:42;;;;;;;;;;;26.50;60.20;;;;;;4961564;28;19907;-76
2023/07/13 17:55:19;;;;;;;;;;;26.50;60.30;;;;;;4961761;28;19912;-75
2023/07/13 17:57:48;;;;;;;;;;;26.50;60.30;;;;;;4962541;28;19964;-76
2023/07/13 18:00:27;;;;;;;;;;;26.40;60.60;;;;;;4961822;28;20320;-74